Aeroporto :
LOGIN :

Iscrizione | Disclaimer

   EN    FR    IT 

 










Sommario :    VFR   VFR Marginale   IFR   IFR Intensivo   IFR Molto Intensivo
Visibilità : 
Base nubi : 
>= 8 km
>= 3000ft
5 / 8 km
1000 / 3000 ft
1500m / 5 km
500 / 1000 ft
800 / 1500m
200 / 500 ft
< 800m
< 200 ft
Simboli :   Temporali  Nebbia  Neve Forte  Precipitazioni Forti  Vento > 20 kt
SIGMETs :   Varie  Temporali  Ghiacco  Turbolenza  Onda orograficha  Ceneri Vulcaniche






- Altitudine del aeroporto : 174 ft
- Codice IATA : RYG


ENRY - Moss , Rygge

ULTIMO METAR :
  • 221620Z 19014KT 9999 BKN021 14/09 Q1004

METARs OBSOLETI :
  • 221550Z 20014KT 9999 BKN024 14/09 Q1004
  • 221520Z 19015KT 9999 BKN024 14/08 Q1004
  • 221450Z 18014KT 9999 BKN022 14/09 Q1005
  • 221420Z 19014KT 9999 BKN022 14/09 Q1005
  • 221350Z 20015KT 9999 BKN022 14/09 Q1005

TAF TAF ENRY
Valido dal 22 a 12 ore il 23 a 12 ore UTC


2212/2312 19012KT 9999 SCT020
TEMPO 2212/2224 19015G25KT
PROB40 2212/2222 BKN012
BECMG 2222/2224 BKN010
TEMPO 2300/2306 4000 -DZRA BR OVC008
TEMPO 2306/2312 SHRA BKN010 FEW020CB



MetMap, La meteo Aeronautica in un colpo d'occhio ! - Copyright ORBIFLY Dicembre 2007 - Disclaimer

ORBIFLY MET'MAP TEAM :

Programmazione e sviluppo : Alexandra Zaïnal
Concezione : Baudouin d'Aumeries
Aiuto per la programmazione : Marc-Olivier Méhu
Supporto tecnico e logistico : Manuel Goepfert
Aiuto per la traduzione : Arnaldo La Scala

Contatto : metmap@orbifly.com




FONTI E CREDITI :

   NOAA